sensor_id;sensor_type;location;lat;lon;timestamp;pressure;altitude;pressure_sealevel;temperature;humidity
61128;BME280;47013;42.664;23.242;2023-08-01T00:00:39;93719.16;;;20.50;71.40
61128;BME280;47013;42.664;23.242;2023-08-01T00:03:04;93728.88;;;20.45;71.40
61128;BME280;47013;42.664;23.242;2023-08-01T00:05:30;93725.03;;;20.43;71.57
61128;BME280;47013;42.664;23.242;2023-08-01T00:07:55;93720.66;;;20.36;72.11
61128;BME280;47013;42.664;23.242;2023-08-01T00:10:21;93723.59;;;20.32;71.58
61128;BME280;47013;42.664;23.242;2023-08-01T00:12:46;93725.75;;;20.28;71.88
61128;BME280;47013;42.664;23.242;2023-08-01T00:15:11;93719.97;;;20.26;72.64
61128;BME280;47013;42.664;23.242;2023-08-01T00:17:39;93719.97;;;20.26;72.30
61128;BME280;47013;42.664;23.242;2023-08-01T00:20:06;93721.41;;;20.22;72.60
61128;BME280;47013;42.664;23.242;2023-08-01T00:22:31;93710.09;;;20.20;72.52
61128;BME280;47013;42.664;23.242;2023-08-01T00:24:56;93717.28;;;20.17;72.50
61128;BME280;47013;42.664;23.242;2023-08-01T00:27:22;93716.25;;;20.15;72.51
61128;BME280;47013;42.664;23.242;2023-08-01T00:29:47;93717.41;;;20.08;72.55
61128;BME280;47013;42.664;23.242;2023-08-01T00:32:13;93716.97;;;20.00;73.13
61128;BME280;47013;42.664;23.242;2023-08-01T00:34:38;93715.66;;;19.96;73.28
61128;BME280;47013;42.664;23.242;2023-08-01T00:37:04;93715.72;;;19.87;73.58
61128;BME280;47013;42.664;23.242;2023-08-01T00:39:30;93716.09;;;19.80;74.19
61128;BME280;47013;42.664;23.242;2023-08-01T00:41:55;93712.56;;;19.79;74.51
61128;BME280;47013;42.664;23.242;2023-08-01T00:44:21;93717.00;;;19.77;74.34
61128;BME280;47013;42.664;23.242;2023-08-01T00:46:47;93713.22;;;19.74;74.68
61128;BME280;47013;42.664;23.242;2023-08-01T00:49:14;93708.94;;;19.73;75.11
61128;BME280;47013;42.664;23.242;2023-08-01T00:51:39;93705.44;;;19.72;75.14
61128;BME280;47013;42.664;23.242;2023-08-01T00:54:05;93707.44;;;19.72;75.27
61128;BME280;47013;42.664;23.242;2023-08-01T00:56:31;93704.38;;;19.70;74.76
61128;BME280;47013;42.664;23.242;2023-08-01T00:58:56;93701.03;;;19.66;74.67
61128;BME280;47013;42.664;23.242;2023-08-01T01:01:22;93697.25;;;19.63;75.00
61128;BME280;47013;42.664;23.242;2023-08-01T01:03:48;93701.59;;;19.55;75.11
61128;BME280;47013;42.664;23.242;2023-08-01T01:06:31;93701.78;;;19.42;75.74
61128;BME280;47013;42.664;23.242;2023-08-01T01:08:58;93702.31;;;19.32;76.35
61128;BME280;47013;42.664;23.242;2023-08-01T01:11:23;93708.16;;;19.25;76.39
61128;BME280;47013;42.664;23.242;2023-08-01T01:13:49;93699.78;;;19.19;76.44
61128;BME280;47013;42.664;23.242;2023-08-01T01:16:18;93703.59;;;19.22;77.25
61128;BME280;47013;42.664;23.242;2023-08-01T01:18:43;93696.38;;;19.24;76.42
61128;BME280;47013;42.664;23.242;2023-08-01T01:21:09;93684.47;;;19.27;76.64
61128;BME280;47013;42.664;23.242;2023-08-01T01:23:34;93683.53;;;19.30;76.87
61128;BME280;47013;42.664;23.242;2023-08-01T01:26:00;93683.34;;;19.34;75.90
61128;BME280;47013;42.664;23.242;2023-08-01T01:28:28;93692.94;;;19.38;75.98
61128;BME280;47013;42.664;23.242;2023-08-01T01:30:54;93675.81;;;19.43;75.94
61128;BME280;47013;42.664;23.242;2023-08-01T01:33:20;93677.97;;;19.39;76.25
61128;BME280;47013;42.664;23.242;2023-08-01T01:35:47;93678.63;;;19.34;76.24
61128;BME280;47013;42.664;23.242;2023-08-01T01:38:12;93674.25;;;19.28;76.77
61128;BME280;47013;42.664;23.242;2023-08-01T01:40:38;93676.00;;;19.16;76.69
61128;BME280;47013;42.664;23.242;2023-08-01T01:43:03;93676.78;;;19.07;76.87
61128;BME280;47013;42.664;23.242;2023-08-01T01:45:29;93679.38;;;19.11;76.94
61128;BME280;47013;42.664;23.242;2023-08-01T01:47:54;93681.63;;;19.12;76.06
61128;BME280;47013;42.664;23.242;2023-08-01T01:50:19;93674.47;;;19.15;74.78
61128;BME280;47013;42.664;23.242;2023-08-01T01:52:45;93681.31;;;19.20;74.06
61128;BME280;47013;42.664;23.242;2023-08-01T01:55:11;93678.75;;;19.16;74.37
61128;BME280;47013;42.664;23.242;2023-08-01T01:57:36;93675.34;;;19.21;73.90
61128;BME280;47013;42.664;23.242;2023-08-01T02:00:03;93680.06;;;19.21;73.78
61128;BME280;47013;42.664;23.242;2023-08-01T02:02:29;93680.38;;;19.23;73.45
61128;BME280;47013;42.664;23.242;2023-08-01T02:04:55;93681.75;;;19.27;72.85
61128;BME280;47013;42.664;23.242;2023-08-01T02:07:21;93680.19;;;19.26;73.66
61128;BME280;47013;42.664;23.242;2023-08-01T02:09:46;93683.91;;;19.14;73.66
61128;BME280;47013;42.664;23.242;2023-08-01T02:12:12;93690.19;;;19.14;74.00
61128;BME280;47013;42.664;23.242;2023-08-01T02:14:40;93682.53;;;19.19;73.46
61128;BME280;47013;42.664;23.242;2023-08-01T02:17:05;93684.72;;;19.14;72.60
61128;BME280;47013;42.664;23.242;2023-08-01T02:19:33;93681.63;;;19.12;72.39
61128;BME280;47013;42.664;23.242;2023-08-01T02:21:59;93688.22;;;19.15;72.52
61128;BME280;47013;42.664;23.242;2023-08-01T02:24:24;93683.16;;;19.13;73.48
61128;BME280;47013;42.664;23.242;2023-08-01T02:26:50;93684.81;;;18.87;73.32
61128;BME280;47013;42.664;23.242;2023-08-01T02:29:16;93680.88;;;18.88;73.91
61128;BME280;47013;42.664;23.242;2023-08-01T02:31:41;93676.91;;;18.89;73.78
61128;BME280;47013;42.664;23.242;2023-08-01T02:34:07;93678.13;;;18.88;73.46
61128;BME280;47013;42.664;23.242;2023-08-01T02:36:32;93677.03;;;18.85;73.25
61128;BME280;47013;42.664;23.242;2023-08-01T02:38:57;93683.94;;;18.81;72.80
61128;BME280;47013;42.664;23.242;2023-08-01T02:41:23;93680.13;;;18.78;73.15
61128;BME280;47013;42.664;23.242;2023-08-01T02:43:48;93679.09;;;18.76;73.15
61128;BME280;47013;42.664;23.242;2023-08-01T02:46:13;93678.19;;;18.70;73.24
61128;BME280;47013;42.664;23.242;2023-08-01T02:48:39;93678.06;;;18.64;73.59
61128;BME280;47013;42.664;23.242;2023-08-01T02:51:04;93679.69;;;18.62;73.79
61128;BME280;47013;42.664;23.242;2023-08-01T02:53:29;93680.91;;;18.61;74.26
61128;BME280;47013;42.664;23.242;2023-08-01T02:55:55;93682.63;;;18.58;74.30
61128;BME280;47013;42.664;23.242;2023-08-01T02:58:20;93686.59;;;18.48;73.93
61128;BME280;47013;42.664;23.242;2023-08-01T03:00:46;93685.44;;;18.40;73.84
61128;BME280;47013;42.664;23.242;2023-08-01T03:03:12;93683.75;;;18.33;73.33
61128;BME280;47013;42.664;23.242;2023-08-01T03:05:38;93686.19;;;18.31;73.51
61128;BME280;47013;42.664;23.242;2023-08-01T03:08:04;93681.47;;;18.32;73.72
61128;BME280;47013;42.664;23.242;2023-08-01T03:10:30;93688.47;;;18.33;74.65
61128;BME280;47013;42.664;23.242;2023-08-01T03:12:55;93677.38;;;18.36;73.59
61128;BME280;47013;42.664;23.242;2023-08-01T03:15:20;93688.63;;;18.38;73.26
61128;BME280;47013;42.664;23.242;2023-08-01T03:17:46;93679.31;;;18.36;72.98
61128;BME280;47013;42.664;23.242;2023-08-01T03:20:12;93681.75;;;18.34;72.94
61128;BME280;47013;42.664;23.242;2023-08-01T03:22:38;93680.25;;;18.33;72.55
61128;BME280;47013;42.664;23.242;2023-08-01T03:25:05;93688.66;;;18.29;72.43
61128;BME280;47013;42.664;23.242;2023-08-01T03:27:33;93683.31;;;18.25;72.17
61128;BME280;47013;42.664;23.242;2023-08-01T03:29:58;93687.75;;;18.23;72.02
61128;BME280;47013;42.664;23.242;2023-08-01T03:32:24;93692.16;;;18.20;71.85
61128;BME280;47013;42.664;23.242;2023-08-01T03:34:49;93685.94;;;18.11;71.60
61128;BME280;47013;42.664;23.242;2023-08-01T03:37:16;93695.69;;;18.12;71.94
61128;BME280;47013;42.664;23.242;2023-08-01T03:39:41;93694.00;;;18.14;71.56
61128;BME280;47013;42.664;23.242;2023-08-01T03:42:06;93691.44;;;18.11;71.70
61128;BME280;47013;42.664;23.242;2023-08-01T03:44:33;93690.22;;;18.12;71.18
61128;BME280;47013;42.664;23.242;2023-08-01T03:46:59;93687.44;;;18.21;71.49
61128;BME280;47013;42.664;23.242;2023-08-01T03:49:24;93688.53;;;18.23;71.67
61128;BME280;47013;42.664;23.242;2023-08-01T03:51:50;93694.91;;;18.30;70.48
61128;BME280;47013;42.664;23.242;2023-08-01T03:54:15;93692.59;;;18.37;70.17
61128;BME280;47013;42.664;23.242;2023-08-01T03:56:40;93687.84;;;18.47;69.69
61128;BME280;47013;42.664;23.242;2023-08-01T03:59:18;93685.25;;;18.43;70.36
61128;BME280;47013;42.664;23.242;2023-08-01T04:01:43;93695.31;;;18.46;70.82
61128;BME280;47013;42.664;23.242;2023-08-01T04:04:09;93691.63;;;18.58;70.87
61128;BME280;47013;42.664;23.242;2023-08-01T04:06:35;93691.75;;;18.73;70.81
61128;BME280;47013;42.664;23.242;2023-08-01T04:09:00;93694.47;;;18.82;69.46
61128;BME280;47013;42.664;23.242;2023-08-01T04:11:26;93691.22;;;18.93;69.78
61128;BME280;47013;42.664;23.242;2023-08-01T04:13:52;93689.06;;;18.97;68.68
61128;BME280;47013;42.664;23.242;2023-08-01T04:16:18;93693.00;;;19.05;68.75
61128;BME280;47013;42.664;23.242;2023-08-01T04:18:43;93686.66;;;19.14;69.63
61128;BME280;47013;42.664;23.242;2023-08-01T04:21:09;93694.69;;;19.27;68.78
61128;BME280;47013;42.664;23.242;2023-08-01T04:23:34;93689.16;;;19.36;69.35
61128;BME280;47013;42.664;23.242;2023-08-01T04:25:59;93700.84;;;19.45;69.37
61128;BME280;47013;42.664;23.242;2023-08-01T04:28:25;93696.97;;;19.52;69.08
61128;BME280;47013;42.664;23.242;2023-08-01T04:30:51;93691.50;;;19.28;69.75
61128;BME280;47013;42.664;23.242;2023-08-01T04:33:17;93696.56;;;19.21;69.88
61128;BME280;47013;42.664;23.242;2023-08-01T04:35:42;93696.59;;;19.11;70.74
61128;BME280;47013;42.664;23.242;2023-08-01T04:38:08;93702.47;;;19.04;71.99
61128;BME280;47013;42.664;23.242;2023-08-01T04:40:34;93704.44;;;19.04;72.61
61128;BME280;47013;42.664;23.242;2023-08-01T04:43:01;93695.56;;;19.09;72.74
61128;BME280;47013;42.664;23.242;2023-08-01T04:45:26;93697.38;;;19.12;72.72
61128;BME280;47013;42.664;23.242;2023-08-01T04:47:52;93696.59;;;19.11;72.22
61128;BME280;47013;42.664;23.242;2023-08-01T04:50:17;93697.03;;;19.19;71.92
61128;BME280;47013;42.664;23.242;2023-08-01T04:52:43;93684.25;;;19.16;72.00
61128;BME280;47013;42.664;23.242;2023-08-01T04:55:08;93699.31;;;19.21;72.09
61128;BME280;47013;42.664;23.242;2023-08-01T04:57:34;93695.34;;;19.22;71.79
61128;BME280;47013;42.664;23.242;2023-08-01T04:59:59;93698.56;;;19.20;71.42
61128;BME280;47013;42.664;23.242;2023-08-01T05:02:25;93701.41;;;19.26;71.42
61128;BME280;47013;42.664;23.242;2023-08-01T05:04:51;93695.59;;;19.33;71.26
61128;BME280;47013;42.664;23.242;2023-08-01T05:07:16;93694.69;;;19.27;70.98
61128;BME280;47013;42.664;23.242;2023-08-01T05:09:42;93699.09;;;19.33;70.82
61128;BME280;47013;42.664;23.242;2023-08-01T05:12:07;93696.06;;;19.31;70.73
61128;BME280;47013;42.664;23.242;2023-08-01T05:14:34;93698.56;;;19.44;70.46
61128;BME280;47013;42.664;23.242;2023-08-01T05:16:59;93696.53;;;19.54;70.03
61128;BME280;47013;42.664;23.242;2023-08-01T05:19:25;93697.44;;;19.60;69.70
61128;BME280;47013;42.664;23.242;2023-08-01T05:21:50;93703.69;;;19.60;69.57
61128;BME280;47013;42.664;23.242;2023-08-01T05:24:16;93699.44;;;19.50;69.92
61128;BME280;47013;42.664;23.242;2023-08-01T05:26:41;93700.38;;;19.47;70.00
61128;BME280;47013;42.664;23.242;2023-08-01T05:29:06;93715.19;;;19.50;70.19
61128;BME280;47013;42.664;23.242;2023-08-01T05:31:32;93713.75;;;19.63;69.71
61128;BME280;47013;42.664;23.242;2023-08-01T05:33:57;93711.97;;;19.75;69.55
61128;BME280;47013;42.664;23.242;2023-08-01T05:36:23;93717.91;;;19.83;68.38
61128;BME280;47013;42.664;23.242;2023-08-01T05:38:48;93714.91;;;19.95;68.24
61128;BME280;47013;42.664;23.242;2023-08-01T05:41:14;93707.63;;;20.07;67.58
61128;BME280;47013;42.664;23.242;2023-08-01T05:43:39;93709.91;;;20.09;67.25
61128;BME280;47013;42.664;23.242;2023-08-01T05:46:04;93707.63;;;20.22;66.67
61128;BME280;47013;42.664;23.242;2023-08-01T05:48:30;93709.34;;;20.19;66.36
61128;BME280;47013;42.664;23.242;2023-08-01T05:50:55;93691.69;;;20.26;65.99
61128;BME280;47013;42.664;23.242;2023-08-01T05:53:21;93695.69;;;20.40;65.47
61128;BME280;47013;42.664;23.242;2023-08-01T05:55:47;93691.34;;;20.48;65.28
61128;BME280;47013;42.664;23.242;2023-08-01T05:58:12;93694.66;;;20.67;64.56
61128;BME280;47013;42.664;23.242;2023-08-01T06:00:38;93699.41;;;20.66;64.36
61128;BME280;47013;42.664;23.242;2023-08-01T06:03:03;93693.41;;;20.82;63.98
61128;BME280;47013;42.664;23.242;2023-08-01T06:05:29;93696.03;;;21.06;63.97
61128;BME280;47013;42.664;23.242;2023-08-01T06:07:54;93691.53;;;21.24;62.91
61128;BME280;47013;42.664;23.242;2023-08-01T06:10:21;93692.13;;;21.13;61.17
61128;BME280;47013;42.664;23.242;2023-08-01T06:12:47;93692.38;;;21.30;60.44
61128;BME280;47013;42.664;23.242;2023-08-01T06:15:12;93699.09;;;21.43;60.43
61128;BME280;47013;42.664;23.242;2023-08-01T06:17:38;93693.94;;;21.51;60.16
61128;BME280;47013;42.664;23.242;2023-08-01T06:20:03;93688.19;;;21.55;59.47
61128;BME280;47013;42.664;23.242;2023-08-01T06:22:30;93685.59;;;21.66;59.76
61128;BME280;47013;42.664;23.242;2023-08-01T06:24:55;93691.84;;;21.87;59.18
61128;BME280;47013;42.664;23.242;2023-08-01T06:27:21;93688.47;;;21.97;58.40
61128;BME280;47013;42.664;23.242;2023-08-01T06:29:46;93695.72;;;22.15;57.39
61128;BME280;47013;42.664;23.242;2023-08-01T06:32:12;93694.09;;;22.29;57.18
61128;BME280;47013;42.664;23.242;2023-08-01T06:34:37;93687.88;;;22.34;56.80
61128;BME280;47013;42.664;23.242;2023-08-01T06:37:03;93685.22;;;22.45;55.96
61128;BME280;47013;42.664;23.242;2023-08-01T06:39:29;93683.25;;;22.51;55.58
61128;BME280;47013;42.664;23.242;2023-08-01T06:41:54;93679.44;;;22.43;56.48
61128;BME280;47013;42.664;23.242;2023-08-01T06:44:20;93688.59;;;22.55;55.72
61128;BME280;47013;42.664;23.242;2023-08-01T06:46:45;93681.69;;;22.71;55.08
61128;BME280;47013;42.664;23.242;2023-08-01T06:49:10;93682.47;;;22.77;54.31
61128;BME280;47013;42.664;23.242;2023-08-01T06:51:36;93683.97;;;22.78;54.29
61128;BME280;47013;42.664;23.242;2023-08-01T06:54:01;93682.75;;;22.79;54.30
61128;BME280;47013;42.664;23.242;2023-08-01T06:56:27;93678.56;;;22.89;54.10
61128;BME280;47013;42.664;23.242;2023-08-01T06:58:52;93684.16;;;22.94;53.54
61128;BME280;47013;42.664;23.242;2023-08-01T07:01:17;93676.63;;;22.95;53.76
61128;BME280;47013;42.664;23.242;2023-08-01T07:03:43;93684.44;;;23.02;54.18
61128;BME280;47013;42.664;23.242;2023-08-01T07:06:08;93681.91;;;22.99;53.81
61128;BME280;47013;42.664;23.242;2023-08-01T07:08:35;93669.88;;;23.02;54.11
61128;BME280;47013;42.664;23.242;2023-08-01T07:11:00;93676.28;;;23.19;53.43
61128;BME280;47013;42.664;23.242;2023-08-01T07:13:26;93679.94;;;23.42;54.23
61128;BME280;47013;42.664;23.242;2023-08-01T07:15:52;93676.97;;;23.57;53.84
61128;BME280;47013;42.664;23.242;2023-08-01T07:18:17;93680.38;;;23.72;53.55
61128;BME280;47013;42.664;23.242;2023-08-01T07:20:44;93675.16;;;23.91;52.77
61128;BME280;47013;42.664;23.242;2023-08-01T07:23:09;93667.63;;;24.02;51.61
61128;BME280;47013;42.664;23.242;2023-08-01T07:25:35;93668.41;;;24.03;52.33
61128;BME280;47013;42.664;23.242;2023-08-01T07:28:00;93666.59;;;23.83;52.51
61128;BME280;47013;42.664;23.242;2023-08-01T07:30:25;93662.56;;;23.95;53.09
61128;BME280;47013;42.664;23.242;2023-08-01T07:32:51;93666.41;;;24.09;52.35
61128;BME280;47013;42.664;23.242;2023-08-01T07:35:16;93662.13;;;24.19;51.90
61128;BME280;47013;42.664;23.242;2023-08-01T07:37:41;93662.91;;;24.25;51.94
61128;BME280;47013;42.664;23.242;2023-08-01T07:40:08;93657.56;;;24.05;51.83
61128;BME280;47013;42.664;23.242;2023-08-01T07:42:33;93658.38;;;24.22;52.38
61128;BME280;47013;42.664;23.242;2023-08-01T07:44:59;93667.25;;;24.43;53.12
61128;BME280;47013;42.664;23.242;2023-08-01T07:47:24;93655.66;;;24.45;51.39
61128;BME280;47013;42.664;23.242;2023-08-01T07:49:50;93666.78;;;24.61;50.94
61128;BME280;47013;42.664;23.242;2023-08-01T07:52:16;93668.28;;;24.79;50.85
61128;BME280;47013;42.664;23.242;2023-08-01T07:54:41;93661.28;;;25.01;49.70
61128;BME280;47013;42.664;23.242;2023-08-01T07:57:06;93660.25;;;25.15;49.08
61128;BME280;47013;42.664;23.242;2023-08-01T07:59:32;93664.53;;;25.16;48.98
61128;BME280;47013;42.664;23.242;2023-08-01T08:01:57;93653.41;;;25.27;49.77
61128;BME280;47013;42.664;23.242;2023-08-01T08:04:22;93653.59;;;25.46;48.65
61128;BME280;47013;42.664;23.242;2023-08-01T08:06:48;93646.53;;;25.56;47.80
61128;BME280;47013;42.664;23.242;2023-08-01T08:09:13;93650.00;;;25.73;47.91
61128;BME280;47013;42.664;23.242;2023-08-01T08:11:38;93639.09;;;25.92;47.57
61128;BME280;47013;42.664;23.242;2023-08-01T08:14:04;93650.41;;;26.00;47.05
61128;BME280;47013;42.664;23.242;2023-08-01T08:16:30;93639.75;;;26.09;46.72
61128;BME280;47013;42.664;23.242;2023-08-01T08:18:55;93640.75;;;26.12;45.91
61128;BME280;47013;42.664;23.242;2023-08-01T08:21:20;93641.91;;;26.28;45.40
61128;BME280;47013;42.664;23.242;2023-08-01T08:23:46;93640.13;;;26.36;44.77
61128;BME280;47013;42.664;23.242;2023-08-01T08:26:11;93633.19;;;26.54;44.76
61128;BME280;47013;42.664;23.242;2023-08-01T08:28:37;93638.34;;;26.74;44.63
61128;BME280;47013;42.664;23.242;2023-08-01T08:31:02;93638.03;;;26.83;43.77
61128;BME280;47013;42.664;23.242;2023-08-01T08:33:29;93631.81;;;27.01;43.51
61128;BME280;47013;42.664;23.242;2023-08-01T08:35:54;93627.81;;;27.21;43.83
61128;BME280;47013;42.664;23.242;2023-08-01T08:38:20;93624.06;;;27.43;42.89
61128;BME280;47013;42.664;23.242;2023-08-01T08:41:09;93616.50;;;27.62;41.44
61128;BME280;47013;42.664;23.242;2023-08-01T08:43:35;93617.22;;;27.69;41.57
61128;BME280;47013;42.664;23.242;2023-08-01T08:46:03;93614.88;;;27.73;41.89
61128;BME280;47013;42.664;23.242;2023-08-01T08:48:29;93613.53;;;27.79;40.98
61128;BME280;47013;42.664;23.242;2023-08-01T08:51:00;93612.56;;;27.96;40.69
61128;BME280;47013;42.664;23.242;2023-08-01T08:53:25;93613.53;;;27.98;41.09
61128;BME280;47013;42.664;23.242;2023-08-01T08:55:51;93612.94;;;27.86;40.37
61128;BME280;47013;42.664;23.242;2023-08-01T08:58:17;93609.78;;;27.77;40.82
61128;BME280;47013;42.664;23.242;2023-08-01T09:00:43;93603.81;;;27.67;40.79
61128;BME280;47013;42.664;23.242;2023-08-01T09:03:09;93610.84;;;27.92;41.61
61128;BME280;47013;42.664;23.242;2023-08-01T09:05:41;93603.00;;;28.10;40.67
61128;BME280;47013;42.664;23.242;2023-08-01T09:08:16;93598.66;;;28.14;40.38
61128;BME280;47013;42.664;23.242;2023-08-01T09:10:43;93601.22;;;27.94;39.94
61128;BME280;47013;42.664;23.242;2023-08-01T09:13:08;93601.44;;;27.96;40.55
61128;BME280;47013;42.664;23.242;2023-08-01T09:15:35;93595.03;;;28.01;40.99
61128;BME280;47013;42.664;23.242;2023-08-01T09:18:06;93592.31;;;28.14;40.41
61128;BME280;47013;42.664;23.242;2023-08-01T09:20:43;93587.19;;;28.37;39.95
61128;BME280;47013;42.664;23.242;2023-08-01T09:23:09;93584.72;;;28.33;39.85
61128;BME280;47013;42.664;23.242;2023-08-01T09:25:36;93580.16;;;28.49;39.75
61128;BME280;47013;42.664;23.242;2023-08-01T09:28:01;93579.41;;;28.81;38.83
61128;BME280;47013;42.664;23.242;2023-08-01T09:30:26;93587.31;;;29.08;38.40
61128;BME280;47013;42.664;23.242;2023-08-01T09:32:56;93583.25;;;29.36;38.22
61128;BME280;47013;42.664;23.242;2023-08-01T09:35:22;93577.50;;;29.60;37.23
61128;BME280;47013;42.664;23.242;2023-08-01T09:37:48;93570.78;;;29.77;36.50
61128;BME280;47013;42.664;23.242;2023-08-01T09:40:14;93576.38;;;29.90;36.89
61128;BME280;47013;42.664;23.242;2023-08-01T09:42:41;93585.28;;;29.88;36.31
61128;BME280;47013;42.664;23.242;2023-08-01T09:45:12;93574.31;;;29.90;35.51
61128;BME280;47013;42.664;23.242;2023-08-01T09:47:39;93567.38;;;29.31;36.38
61128;BME280;47013;42.664;23.242;2023-08-01T09:50:04;93573.06;;;29.38;37.08
61128;BME280;47013;42.664;23.242;2023-08-01T09:52:30;93567.38;;;29.18;36.87
61128;BME280;47013;42.664;23.242;2023-08-01T09:54:55;93553.84;;;29.48;36.88
61128;BME280;47013;42.664;23.242;2023-08-01T09:57:22;93550.69;;;29.78;35.78
61128;BME280;47013;42.664;23.242;2023-08-01T09:59:48;93558.50;;;30.06;35.92
61128;BME280;47013;42.664;23.242;2023-08-01T10:02:16;93546.81;;;30.29;35.92
61128;BME280;47013;42.664;23.242;2023-08-01T10:04:45;93543.13;;;30.34;35.19
61128;BME280;47013;42.664;23.242;2023-08-01T10:07:13;93548.63;;;30.60;35.17
61128;BME280;47013;42.664;23.242;2023-08-01T10:09:40;93543.13;;;30.68;33.94
61128;BME280;47013;42.664;23.242;2023-08-01T10:12:08;93538.81;;;30.67;33.44
61128;BME280;47013;42.664;23.242;2023-08-01T10:14:35;93543.22;;;30.62;33.92
61128;BME280;47013;42.664;23.242;2023-08-01T10:17:02;93541.13;;;30.76;33.50
61128;BME280;47013;42.664;23.242;2023-08-01T10:19:30;93534.16;;;30.90;33.79
61128;BME280;47013;42.664;23.242;2023-08-01T10:21:57;93534.25;;;31.05;33.63
61128;BME280;47013;42.664;23.242;2023-08-01T10:24:25;93527.06;;;30.89;33.01
61128;BME280;47013;42.664;23.242;2023-08-01T10:26:51;93521.59;;;31.12;32.92
61128;BME280;47013;42.664;23.242;2023-08-01T10:29:17;93525.75;;;31.39;32.54
61128;BME280;47013;42.664;23.242;2023-08-01T10:31:53;93518.75;;;31.61;32.16
61128;BME280;47013;42.664;23.242;2023-08-01T10:34:19;93515.50;;;31.86;27.44
61128;BME280;47013;42.664;23.242;2023-08-01T10:36:56;93510.31;;;31.97;27.00
61128;BME280;47013;42.664;23.242;2023-08-01T10:39:23;93515.06;;;31.09;27.24
61128;BME280;47013;42.664;23.242;2023-08-01T10:41:59;93510.81;;;31.45;26.68
61128;BME280;47013;42.664;23.242;2023-08-01T10:44:25;93509.19;;;31.21;26.04
61128;BME280;47013;42.664;23.242;2023-08-01T10:46:53;93501.75;;;30.74;26.19
61128;BME280;47013;42.664;23.242;2023-08-01T10:49:31;93497.66;;;31.03;26.20
61128;BME280;47013;42.664;23.242;2023-08-01T10:51:57;93493.22;;;30.79;26.28
61128;BME280;47013;42.664;23.242;2023-08-01T10:54:24;93486.78;;;30.71;26.68
61128;BME280;47013;42.664;23.242;2023-08-01T10:56:54;93487.75;;;30.11;26.90
61128;BME280;47013;42.664;23.242;2023-08-01T10:59:21;93487.81;;;30.61;26.60
61128;BME280;47013;42.664;23.242;2023-08-01T11:01:51;93484.78;;;31.00;24.96
61128;BME280;47013;42.664;23.242;2023-08-01T11:04:18;93478.44;;;31.28;25.10
61128;BME280;47013;42.664;23.242;2023-08-01T11:06:52;93470.69;;;31.50;26.38
61128;BME280;47013;42.664;23.242;2023-08-01T11:09:22;93473.44;;;31.78;24.24
61128;BME280;47013;42.664;23.242;2023-08-01T11:11:53;93471.22;;;31.48;24.92
61128;BME280;47013;42.664;23.242;2023-08-01T11:14:20;93461.13;;;31.45;26.17
61128;BME280;47013;42.664;23.242;2023-08-01T11:16:46;93470.72;;;30.64;25.85
61128;BME280;47013;42.664;23.242;2023-08-01T11:19:29;93463.16;;;31.08;25.32
61128;BME280;47013;42.664;23.242;2023-08-01T11:21:55;93450.97;;;31.27;25.09
61128;BME280;47013;42.664;23.242;2023-08-01T11:24:22;93450.34;;;31.57;24.93
61128;BME280;47013;42.664;23.242;2023-08-01T11:26:49;93449.34;;;31.83;23.82
61128;BME280;47013;42.664;23.242;2023-08-01T11:29:16;93437.44;;;32.05;23.98
61128;BME280;47013;42.664;23.242;2023-08-01T11:31:52;93450.91;;;32.22;25.07
61128;BME280;47013;42.664;23.242;2023-08-01T11:34:18;93437.88;;;32.32;24.38
61128;BME280;47013;42.664;23.242;2023-08-01T11:36:43;93439.34;;;32.41;23.64
61128;BME280;47013;42.664;23.242;2023-08-01T11:39:11;93441.03;;;32.51;24.39
61128;BME280;47013;42.664;23.242;2023-08-01T11:41:37;93436.16;;;32.29;24.30
61128;BME280;47013;42.664;23.242;2023-08-01T11:44:04;93434.69;;;32.36;23.84
61128;BME280;47013;42.664;23.242;2023-08-01T11:46:32;93427.34;;;32.17;24.16
61128;BME280;47013;42.664;23.242;2023-08-01T11:48:58;93426.63;;;32.17;23.58
61128;BME280;47013;42.664;23.242;2023-08-01T11:51:26;93427.34;;;32.10;24.63
61128;BME280;47013;42.664;23.242;2023-08-01T11:54:04;93416.50;;;32.06;23.98
61128;BME280;47013;42.664;23.242;2023-08-01T11:56:30;93418.22;;;32.32;21.86
61128;BME280;47013;42.664;23.242;2023-08-01T11:58:55;93415.06;;;32.43;21.26
61128;BME280;47013;42.664;23.242;2023-08-01T12:01:21;93417.63;;;32.79;19.49
61128;BME280;47013;42.664;23.242;2023-08-01T12:03:52;93416.13;;;32.94;19.69
61128;BME280;47013;42.664;23.242;2023-08-01T12:06:19;93406.72;;;33.14;20.63
61128;BME280;47013;42.664;23.242;2023-08-01T12:08:48;93404.78;;;33.47;20.86
61128;BME280;47013;42.664;23.242;2023-08-01T12:11:27;93407.56;;;32.46;22.56
61128;BME280;47013;42.664;23.242;2023-08-01T12:16:29;93400.81;;;32.72;21.40
61128;BME280;47013;42.664;23.242;2023-08-01T12:18:56;93396.84;;;32.98;22.19
61128;BME280;47013;42.664;23.242;2023-08-01T12:21:22;93405.22;;;33.21;21.06
61128;BME280;47013;42.664;23.242;2023-08-01T12:23:47;93391.84;;;32.43;22.12
61128;BME280;47013;42.664;23.242;2023-08-01T12:26:12;93385.66;;;32.82;21.82
61128;BME280;47013;42.664;23.242;2023-08-01T12:28:38;93400.53;;;33.15;21.33
61128;BME280;47013;42.664;23.242;2023-08-01T12:31:03;93394.38;;;33.09;21.13
61128;BME280;47013;42.664;23.242;2023-08-01T12:33:29;93387.19;;;33.39;20.47
61128;BME280;47013;42.664;23.242;2023-08-01T12:35:55;93384.47;;;33.56;20.25
61128;BME280;47013;42.664;23.242;2023-08-01T12:38:20;93388.88;;;33.75;19.77
61128;BME280;47013;42.664;23.242;2023-08-01T12:40:45;93381.72;;;33.81;20.08
61128;BME280;47013;42.664;23.242;2023-08-01T12:43:14;93384.28;;;33.94;20.25
61128;BME280;47013;42.664;23.242;2023-08-01T12:45:41;93381.94;;;34.08;19.70
61128;BME280;47013;42.664;23.242;2023-08-01T12:48:07;93377.94;;;34.19;19.46